createdAt,value
2022-09-25T10:39:31.461Z,0.57
2022-09-25T10:42:18.938Z,0.40
2022-09-25T10:49:49.822Z,0.70
2022-09-25T10:53:32.777Z,0.40
2022-09-25T10:56:29.055Z,0.20
2022-09-25T11:10:58.816Z,0.93
2022-09-25T11:20:58.546Z,1.33
2022-09-25T11:21:25.716Z,0.80
2022-09-25T11:25:05.650Z,0.27
2022-09-25T11:42:40.189Z,0.63
2022-09-25T11:46:00.170Z,0.57
2022-09-25T11:50:09.761Z,0.37
2022-09-25T11:53:20.077Z,0.30
2022-09-25T12:17:31.316Z,0.57
2022-09-25T12:45:56.068Z,0.80
2022-09-25T12:58:24.016Z,0.47
2022-09-25T12:59:56.547Z,0.30
2022-09-25T13:06:24.166Z,0.70
2022-09-25T13:10:07.254Z,0.73
2022-09-25T13:12:53.216Z,0.40
2022-09-25T13:16:02.943Z,0.20
2022-09-25T13:21:47.824Z,0.00
2022-09-25T13:25:12.746Z,0.43
2022-09-25T13:39:08.841Z,1.43
2022-09-25T13:41:53.591Z,1.07
2022-09-25T13:51:55.822Z,0.77
2022-09-25T13:54:41.585Z,1.38
2022-09-25T13:57:22.869Z,0.60
2022-09-25T14:00:31.891Z,0.60
2022-09-25T14:03:17.868Z,0.60
2022-09-25T14:06:22.017Z,2.03
2022-09-25T14:13:07.440Z,0.30
2022-09-25T14:16:21.775Z,1.10
2022-09-25T14:19:48.936Z,0.30
2022-09-25T14:22:53.115Z,1.07
2022-09-25T14:50:10.358Z,1.07
2022-09-25T14:53:35.729Z,1.92
2022-09-25T14:56:20.321Z,1.17
2022-09-25T14:59:03.914Z,1.60
2022-09-25T15:01:34.976Z,1.73
2022-09-25T15:04:34.674Z,1.37
2022-09-25T15:07:34.228Z,2.00
2022-09-25T15:10:24.480Z,0.93
2022-09-25T15:12:59.523Z,1.80
2022-09-25T15:18:59.086Z,1.20
2022-09-25T15:21:43.669Z,0.90
2022-09-25T15:24:35.146Z,0.93
2022-09-25T15:27:11.627Z,0.53
2022-09-25T15:29:49.261Z,1.03
2022-09-25T15:32:40.614Z,0.80
2022-09-25T15:38:22.110Z,0.83
2022-09-25T15:41:07.946Z,1.00
2022-09-25T15:43:41.438Z,1.15
2022-09-25T15:46:36.502Z,1.23
2022-09-25T15:49:08.109Z,1.15
2022-09-25T15:51:38.118Z,1.73
2022-09-25T15:54:55.736Z,1.47
2022-09-25T15:57:29.956Z,0.53
2022-09-25T16:00:38.029Z,1.70
2022-09-25T16:06:55.409Z,1.50
2022-09-25T16:10:25.195Z,2.13
2022-09-25T16:16:34.110Z,1.90
2022-09-25T16:19:35.401Z,0.93
2022-09-25T16:22:24.777Z,1.60
2022-09-25T16:27:49.326Z,3.80
2022-09-25T16:30:31.019Z,2.53
2022-09-25T16:33:33.762Z,0.83
2022-09-25T16:36:18.224Z,1.60
2022-09-25T16:39:31.837Z,1.50
2022-09-25T16:42:49.079Z,2.70
2022-09-25T16:46:21.021Z,1.07
2022-09-25T16:49:08.662Z,1.50
2022-09-25T16:51:54.485Z,1.07
2022-09-25T16:54:36.123Z,1.30
2022-09-25T16:57:26.584Z,2.30
2022-09-25T17:00:53.082Z,2.27
2022-09-25T17:03:22.871Z,2.10
2022-09-25T17:05:53.658Z,3.20
2022-09-25T17:08:25.388Z,1.50
2022-09-25T17:10:54.665Z,3.77
2022-09-25T17:13:27.585Z,2.47
2022-09-25T17:16:02.669Z,1.30
2022-09-25T17:21:23.779Z,3.73
2022-09-25T17:23:53.402Z,1.63
2022-09-25T17:26:30.354Z,1.60
2022-09-25T17:32:28.175Z,1.53
2022-09-25T17:35:02.850Z,0.60
2022-09-25T17:37:37.654Z,1.33
2022-09-25T17:40:21.731Z,2.40
2022-09-25T17:42:49.921Z,3.05
2022-09-25T17:45:46.875Z,1.90
2022-09-25T17:48:24.505Z,1.70
2022-09-25T17:50:57.557Z,4.10
2022-09-25T17:53:36.718Z,3.40
2022-09-25T17:59:39.260Z,2.73
2022-09-25T18:02:15.618Z,3.80
2022-09-25T18:04:52.058Z,1.40
2022-09-25T18:07:31.192Z,4.17
2022-09-25T18:10:11.475Z,5.17
2022-09-25T18:16:21.083Z,4.27
2022-09-25T18:22:39.594Z,3.03
2022-09-25T18:25:06.518Z,3.43
2022-09-25T18:27:48.532Z,5.53
2022-09-25T18:30:33.640Z,3.67
2022-09-25T18:33:10.412Z,4.82
2022-09-25T18:35:44.159Z,5.27
2022-09-25T18:38:40.461Z,5.03
2022-09-25T18:41:28.300Z,6.00
2022-09-25T18:44:42.557Z,3.97
2022-09-25T18:47:47.810Z,4.47
2022-09-25T18:50:35.061Z,5.10
2022-09-25T18:53:05.370Z,1.80
2022-09-25T18:55:36.419Z,3.77
2022-09-25T18:58:13.815Z,6.57
2022-09-25T19:00:54.787Z,6.63
2022-09-25T19:03:30.177Z,3.63
2022-09-25T19:06:10.891Z,1.97
2022-09-25T19:08:41.113Z,7.93
2022-09-25T19:11:21.385Z,4.97
2022-09-25T19:14:35.582Z,4.03
2022-09-25T19:17:24.233Z,8.07
2022-09-25T19:19:56.337Z,3.07
2022-09-25T19:22:48.587Z,7.87
2022-09-25T19:25:22.713Z,3.03
2022-09-25T19:28:28.339Z,5.20
2022-09-25T19:31:17.109Z,4.40
2022-09-25T19:33:44.534Z,3.47
2022-09-25T19:36:29.116Z,3.60
2022-09-25T19:39:39.407Z,2.00
2022-09-25T19:42:16.898Z,3.20
2022-09-25T19:44:47.283Z,5.03
2022-09-25T19:47:49.158Z,6.57
2022-09-25T19:50:28.732Z,2.73
2022-09-25T19:56:41.335Z,2.23
2022-09-25T19:59:25.799Z,5.03
2022-09-25T20:02:03.740Z,3.57
2022-09-25T20:08:10.217Z,3.10
2022-09-25T20:10:46.733Z,4.60
2022-09-25T20:16:35.491Z,4.73
2022-09-25T20:19:43.889Z,2.90
2022-09-25T20:22:25.470Z,6.73
2022-09-25T20:24:59.790Z,5.40
2022-09-25T20:36:49.853Z,3.63
2022-09-25T20:45:38.817Z,8.93
2022-09-25T20:48:07.568Z,8.03
2022-09-25T20:50:57.892Z,5.10
2022-09-25T20:54:00.254Z,5.77
2022-09-25T20:56:42.593Z,5.83
2022-09-25T20:59:13.724Z,7.67
2022-09-25T21:04:47.943Z,6.77
2022-09-25T21:07:17.205Z,3.37
2022-09-25T21:09:53.942Z,4.03
2022-09-25T21:12:21.912Z,4.27
2022-09-25T21:14:55.282Z,7.37
2022-09-25T21:17:35.017Z,3.83
2022-09-25T21:20:03.425Z,4.37
2022-09-25T21:25:20.093Z,3.97
2022-09-25T21:27:50.281Z,3.67
2022-09-25T21:30:19.994Z,4.10
2022-09-25T21:32:54.845Z,3.60
2022-09-25T21:35:29.170Z,5.60
2022-09-25T21:38:03.013Z,3.70
2022-09-25T21:40:35.684Z,3.50
2022-09-25T21:43:07.418Z,3.30
2022-09-25T21:45:42.170Z,2.93
2022-09-25T21:48:18.659Z,4.70
2022-09-25T21:50:57.319Z,5.40
2022-09-25T21:57:06.238Z,6.33
2022-09-25T21:59:37.073Z,3.43
2022-09-25T22:02:23.304Z,4.77
2022-09-25T22:05:01.449Z,5.35
2022-09-25T22:07:39.579Z,3.13
2022-09-25T22:10:07.436Z,6.87
2022-09-25T22:12:39.394Z,4.77
2022-09-25T22:15:32.288Z,2.33
2022-09-25T22:18:39.004Z,4.63
2022-09-25T22:21:21.620Z,6.37
2022-09-25T22:26:51.959Z,4.03
2022-09-25T22:32:11.052Z,5.83
2022-09-25T22:34:42.351Z,5.13
2022-09-25T22:37:11.267Z,5.30
2022-09-25T22:39:48.601Z,2.80
2022-09-25T22:42:16.709Z,3.73
2022-09-25T22:44:50.103Z,6.83
2022-09-25T22:47:26.226Z,3.50
2022-09-25T22:50:03.342Z,4.00
2022-09-25T22:52:35.916Z,9.00
2022-09-25T22:58:33.703Z,2.60
2022-09-25T23:04:02.673Z,2.73
2022-09-25T23:06:54.982Z,4.90
2022-09-25T23:15:37.159Z,6.00
2022-09-25T23:28:32.001Z,4.57
2022-09-25T23:31:36.845Z,4.27
2022-09-25T23:34:17.777Z,2.90
2022-09-25T23:37:31.943Z,3.00
2022-09-25T23:40:15.839Z,5.50
2022-09-25T23:43:09.389Z,3.47
2022-09-25T23:46:29.714Z,2.23
2022-09-25T23:49:24.743Z,2.60
2022-09-25T23:52:05.444Z,2.67
2022-09-25T23:54:48.975Z,3.70
2022-09-25T23:58:02.838Z,4.77
